Hamnavoe — VSTY7 — position and weather

sailwx.info

Track history (hours):
 
Tides and Currents Weather Stations Pressure Air Temp Water Temp Dewpoint Dewpoint Depression Visibility Wind Speed Wind Dir Waves Ship Positions

Hamnavoe

Operator: NorthLink Orkey & Shetland Ferries Ltd

Last reported at 2018-Jul-21 19:27 UTC. Time now 2018-Jul-22 06:50 UTC.
Position N 58°58' W 003°18'.

Length 112 m; draft 4.2 m.

Type: Ship. MMSI: 235449000.

Date/timePositionNaut miles runAvg speedWind from/ knotsBaromVisibWave heightAir tempDewpointWater temp
2018-Jul-21 19:27N 58°58' W 003°18'914.8
2018-Jul-21 18:50N 58°50' W 003°28'719.2
2018-Jul-21 18:27N 58°43' W 003°30'6 4.0
2018-Jul-21 16:58N 58°37' W 003°32'919.4
2018-Jul-21 16:30N 58°46' W 003°29'1316.7
2018-Jul-21 15:45N 58°57' W 003°17'1 0.3
2018-Jul-21 13:38N 58°58' W 003°18'514.3
2018-Jul-21 13:16N 58°55' W 003°26'618.2
2018-Jul-21 12:56N 58°49' W 003°29'12 7.9
2018-Jul-21 11:23N 58°37' W 003°32'718.8
2018-Jul-21 11:01N 58°43' W 003°30'1417.0
2018-Jul-21 10:10N 58°57' W 003°19'1 1.0
2018-Jul-21 09:05N 58°58' W 003°18'1 7.7
2018-Jul-21 08:59N 58°57' W 003°18'916.7
2018-Jul-21 08:27N 58°50' W 003°29'819.0
2018-Jul-21 08:00N 58°42' W 003°31'4 2.9
2018-Jul-21 06:44N 58°38' W 003°32'419.4
2018-Jul-21 06:30N 58°42' W 003°31'1617.7
2018-Jul-21 05:37N 58°57' W 003°19'1 9.5
2018-Jul-21 05:30N 58°57' W 003°18'0 0.0
2018-Jul-20 19:16N 58°58' W 003°18'513.4
2018-Jul-20 18:53N 58°55' W 003°26'718.4
2018-Jul-20 18:29N 58°47' W 003°29'11 7.6
2018-Jul-20 17:04N 58°37' W 003°32'113.8
2018-Jul-20 16:59N 58°38' W 003°31'817.8
2018-Jul-20 16:30N 58°46' W 003°29'1018.7
2018-Jul-20 15:57N 58°56' W 003°24'4 1.5
2018-Jul-20 13:33N 58°58' W 003°18'1 9.2
2018-Jul-20 13:29N 58°57' W 003°17'915.6
2018-Jul-20 12:55N 58°50' W 003°28'818.3
2018-Jul-20 12:30N 58°43' W 003°30'5 3.9
2018-Jul-20 11:16N 58°38' W 003°31'519.1
2018-Jul-20 11:00N 58°43' W 003°30'1516.7
2018-Jul-20 10:07N 58°57' W 003°19'1 9.4
2018-Jul-20 10:00N 58°57' W 003°18'0 0.2
2018-Jul-20 09:04N 58°58' W 003°18'1 9.5
2018-Jul-20 09:00N 58°57' W 003°17'915.7
2018-Jul-20 08:25N 58°50' W 003°29'818.9
2018-Jul-20 08:00N 58°42' W 003°30'6 4.8
2018-Jul-20 06:48N 58°37' W 003°32'517.8
2018-Jul-20 06:30N 58°42' W 003°31'1318.3
2018-Jul-20 05:49N 58°54' W 003°26'517.4
2018-Jul-20 05:30N 58°57' W 003°17'1 0.1
2018-Jul-19 19:18N 58°58' W 003°18'512.8
2018-Jul-19 18:55N 58°55' W 003°26'919.4
2018-Jul-19 18:29N 58°47' W 003°30'11 7.5
2018-Jul-19 17:05N 58°37' W 003°32'112.6
2018-Jul-19 16:58N 58°38' W 003°31'919.6
2018-Jul-19 16:31N 58°47' W 003°29'1117.5
2018-Jul-19 15:52N 58°57' W 003°19'1 0.3
2018-Jul-19 13:30N 58°57' W 003°18'816.1
2018-Jul-19 13:00N 58°50' W 003°28'918.9
2018-Jul-19 12:30N 58°41' W 003°30'5 5.8
2018-Jul-19 11:43N 58°37' W 003°32'0 0.3
2018-Jul-19 11:20N 58°37' W 003°32'516.4
2018-Jul-19 11:00N 58°42' W 003°30'1419.4
2018-Jul-19 10:17N 58°56' W 003°25'415.7
2018-Jul-19 10:00N 58°57' W 003°17'1 0.6
2018-Jul-19 09:05N 58°58' W 003°18'1 9.3
2018-Jul-19 09:00N 58°57' W 003°17'915.4
2018-Jul-19 08:26N 58°50' W 003°28'819.2
2018-Jul-19 08:00N 58°42' W 003°31'6 4.7
2018-Jul-19 06:49N 58°37' W 003°32'517.7
2018-Jul-19 06:31N 58°42' W 003°30'1418.4
2018-Jul-19 05:45N 58°56' W 003°25'416.1
2018-Jul-19 05:29N 58°57' W 003°18'0 0.0
2018-Jul-18 19:22N 58°58' W 003°18'512.6
2018-Jul-18 18:58N 58°55' W 003°26'918.3
2018-Jul-18 18:30N 58°47' W 003°30'10 6.9
2018-Jul-18 17:04N 58°37' W 003°32'116.5
2018-Jul-18 16:59N 58°38' W 003°32'918.4
2018-Jul-18 16:30N 58°47' W 003°29'1116.0
2018-Jul-18 15:48N 58°57' W 003°19'1 0.4
2018-Jul-18 13:30N 58°57' W 003°18'914.9
2018-Jul-18 12:54N 58°50' W 003°28'717.4
2018-Jul-18 12:30N 58°43' W 003°30'7 6.0
2018-Jul-18 11:21N 58°37' W 003°32'1817.5
2018-Jul-18 10:18N 58°55' W 003°26'515.7
2018-Jul-18 10:00N 58°57' W 003°18'1 0.7
2018-Jul-18 09:02N 58°57' W 003°18'0 9.6
2018-Jul-18 08:59N 58°57' W 003°17'916.2
2018-Jul-18 08:26N 58°50' W 003°28'819.4
2018-Jul-18 08:00N 58°42' W 003°30'5 5.1
2018-Jul-18 06:56N 58°37' W 003°32'716.4
2018-Jul-18 06:30N 58°43' W 003°30'1118.4
2018-Jul-18 05:53N 58°55' W 003°26'5 0.5
2018-Jul-17 19:16N 58°58' W 003°18'512.9
2018-Jul-17 18:54N 58°55' W 003°26'1418.7
2018-Jul-17 18:08N 58°41' W 003°30'5 8.0
2018-Jul-17 17:32N 58°37' W 003°32'0 0.0
2018-Jul-17 17:17N 58°37' W 003°32'1 3.2
2018-Jul-17 16:59N 58°37' W 003°31'1318.8
2018-Jul-17 16:19N 58°50' W 003°28'815.9
2018-Jul-17 15:48N 58°57' W 003°19'1 0.5
2018-Jul-17 13:37N 58°58' W 003°18'914.3
2018-Jul-17 12:59N 58°50' W 003°28'1412.3
2018-Jul-17 11:51N 58°37' W 003°32'0 0.3
2018-Jul-17 11:27N 58°37' W 003°32'816.9
2018-Jul-17 10:59N 58°44' W 003°30'1020.0
2018-Jul-17 10:27N 58°55' W 003°26'5 4.2
2018-Jul-17 09:10N 58°58' W 003°18'2 8.9
2018-Jul-17 08:59N 58°57' W 003°20'816.8
2018-Jul-17 08:30N 58°50' W 003°29'14 8.5
2018-Jul-17 06:55N 58°37' W 003°32'716.7
2018-Jul-17 06:30N 58°43' W 003°31'1117.8
2018-Jul-17 05:52N 58°54' W 003°26'514.8
2018-Jul-17 05:30N 58°57' W 003°18'0 0.0
2018-Jul-16 19:18N 58°58' W 003°18'513.7
2018-Jul-16 18:54N 58°54' W 003°26'819.1
2018-Jul-16 18:30N 58°47' W 003°30'11 7.7
2018-Jul-16 17:09N 58°37' W 003°32'211.9
2018-Jul-16 16:59N 58°38' W 003°31'918.9
2018-Jul-16 16:30N 58°48' W 003°29'1116.4
2018-Jul-16 15:50N 58°57' W 003°18'1 0.3
2018-Jul-16 13:35N 58°58' W 003°18'1 8.3
2018-Jul-16 13:30N 58°57' W 003°18'915.3
2018-Jul-16 12:56N 58°50' W 003°29'818.7
2018-Jul-16 12:30N 58°42' W 003°30'6 4.6
2018-Jul-16 11:18N 58°37' W 003°32'718.1
2018-Jul-16 10:54N 58°44' W 003°30'1119.7
2018-Jul-16 10:20N 58°55' W 003°26'514.8
2018-Jul-16 10:00N 58°57' W 003°17'1 0.9
2018-Jul-16 09:03N 58°58' W 003°18'0 4.4
2018-Jul-16 09:00N 58°58' W 003°18'914.9
2018-Jul-16 08:24N 58°50' W 003°28'14 9.1
2018-Jul-16 06:53N 58°37' W 003°32'718.3
2018-Jul-16 06:30N 58°43' W 003°30'1218.1
2018-Jul-16 05:50N 58°55' W 003°25'513.9
2018-Jul-16 05:30N 58°58' W 003°18'0 0.0
2018-Jul-15 19:24N 58°58' W 003°18'614.4
2018-Jul-15 18:59N 58°54' W 003°27'12 5.7
2018-Jul-15 16:48N 58°42' W 003°30'618.7
2018-Jul-15 16:29N 58°48' W 003°29'918.2
2018-Jul-15 15:58N 58°56' W 003°23'3 0.7
2018-Jul-15 12:17N 58°58' W 003°18'19 6.2
2018-Jul-15 09:12N 58°40' W 003°31'518.9
2018-Jul-15 08:58N 58°44' W 003°30'1020.0
2018-Jul-15 08:27N 58°54' W 003°26'5 0.4
2018-Jul-14 19:17N 58°57' W 003°18'515.0
2018-Jul-14 18:57N 58°55' W 003°26'818.4
2018-Jul-14 18:31N 58°47' W 003°29'10 8.0
2018-Jul-14 17:14N 58°37' W 003°32'0 1.0
2018-Jul-14 17:00N 58°37' W 003°32'919.0
2018-Jul-14 16:30N 58°46' W 003°29'918.4
2018-Jul-14 16:00N 58°55' W 003°25'5 2.0
2018-Jul-14 13:41N 58°58' W 003°18'1 5.9
2018-Jul-14 13:30N 58°57' W 003°18'916.2
2018-Jul-14 12:59N 58°50' W 003°29'14 8.3
2018-Jul-14 11:21N 58°37' W 003°32'618.4
2018-Jul-14 11:01N 58°43' W 003°30'1517.1
2018-Jul-14 10:07N 58°57' W 003°19'1 7.6
2018-Jul-14 10:00N 58°58' W 003°18'0 0.3
2018-Jul-14 09:12N 58°58' W 003°18'2 9.4
2018-Jul-14 09:00N 58°57' W 003°21'1016.9
2018-Jul-14 08:24N 58°47' W 003°28'11 7.8
2018-Jul-14 07:00N 58°37' W 003°32'817.4
2018-Jul-14 06:30N 58°45' W 003°30'1019.4
2018-Jul-14 06:00N 58°55' W 003°26'5 0.5
2018-Jul-13 19:15N 58°58' W 003°18'514.2
2018-Jul-13 18:56N 58°55' W 003°25'818.2
2018-Jul-13 18:28N 58°47' W 003°29'1118.4
2018-Jul-13 17:53N 58°37' W 003°32'0 0.3
2018-Jul-13 17:27N 58°37' W 003°32'1 2.4
2018-Jul-13 16:58N 58°38' W 003°31'919.7
2018-Jul-13 16:30N 58°47' W 003°29'1117.8
2018-Jul-13 15:53N 58°57' W 003°21'2 0.7
2018-Jul-13 13:29N 58°58' W 003°18'914.6
2018-Jul-13 12:51N 58°50' W 003°29'719.5
2018-Jul-13 12:30N 58°43' W 003°30'7 5.8
2018-Jul-13 11:18N 58°37' W 003°32'515.3
2018-Jul-13 11:01N 58°41' W 003°31'1419.5
2018-Jul-13 10:19N 58°54' W 003°26'516.9
2018-Jul-13 10:00N 58°57' W 003°17'1 0.7
2018-Jul-13 09:02N 58°58' W 003°18'0 6.6
2018-Jul-13 09:00N 58°57' W 003°18'915.1
2018-Jul-13 08:24N 58°50' W 003°28'718.6
2018-Jul-13 08:00N 58°43' W 003°30'6 5.9
2018-Jul-13 06:55N 58°37' W 003°32'716.4
2018-Jul-13 06:30N 58°43' W 003°30'1220.0
2018-Jul-13 05:56N 58°55' W 003°26'512.2
2018-Jul-13 05:30N 58°58' W 003°18'0 0.0
2018-Jul-12 19:16N 58°58' W 003°18'514.9
2018-Jul-12 18:56N 58°55' W 003°26'817.6
2018-Jul-12 18:28N 58°47' W 003°29'10 7.7
2018-Jul-12 17:08N 58°37' W 003°32'1 8.9
2018-Jul-12 16:59N 58°38' W 003°31'919.0
2018-Jul-12 16:30N 58°47' W 003°29'1116.5
2018-Jul-12 15:50N 58°57' W 003°19'1 0.5
2018-Jul-12 13:32N 58°58' W 003°18'0 6.7
2018-Jul-12 13:30N 58°58' W 003°18'813.9
2018-Jul-12 12:54N 58°51' W 003°27'818.7
2018-Jul-12 12:30N 58°43' W 003°29'7 5.4
2018-Jul-12 11:15N 58°37' W 003°32'518.2
2018-Jul-12 11:00N 58°41' W 003°31'1318.8
2018-Jul-12 10:18N 58°54' W 003°26'517.1
2018-Jul-12 09:59N 58°57' W 003°17'1 0.6
2018-Jul-12 09:09N 58°58' W 003°18'513.9
2018-Jul-12 08:46N 58°54' W 003°26'518.2
2018-Jul-12 08:29N 58°50' W 003°28'918.6
2018-Jul-12 08:00N 58°41' W 003°31'4 6.1
2018-Jul-12 07:19N 58°37' W 003°32'0 0.2
2018-Jul-12 06:53N 58°37' W 003°32'616.5
2018-Jul-12 06:31N 58°43' W 003°30'1220.2
2018-Jul-12 05:54N 58°55' W 003°26'513.1
2018-Jul-12 05:30N 58°57' W 003°18'  
Track history (hours):
 
Tides and Currents Weather Stations Pressure Air Temp Water Temp Dewpoint Dewpoint Depression Visibility Wind Speed Wind Dir Waves Ship Positions

Hamnavoe

Operator: NorthLink Orkey & Shetland Ferries Ltd

Last reported at 2018-Jul-21 19:27 UTC. Time now 2018-Jul-22 06:50 UTC.
Position N 58°58' W 003°18'.

Length 112 m; draft 4.2 m.

Type: Ship. MMSI: 235449000.

Date/timePositionNaut miles runAvg speedWind from/ knotsBaromVisibWave heightAir tempDewpointWater temp
2018-Jul-21 19:27N 58°58' W 003°18'914.8
2018-Jul-21 18:50N 58°50' W 003°28'719.2
2018-Jul-21 18:27N 58°43' W 003°30'6 4.0
2018-Jul-21 16:58N 58°37' W 003°32'919.4
2018-Jul-21 16:30N 58°46' W 003°29'1316.7
2018-Jul-21 15:45N 58°57' W 003°17'1 0.3
2018-Jul-21 13:38N 58°58' W 003°18'514.3
2018-Jul-21 13:16N 58°55' W 003°26'618.2
2018-Jul-21 12:56N 58°49' W 003°29'12 7.9
2018-Jul-21 11:23N 58°37' W 003°32'718.8
2018-Jul-21 11:01N 58°43' W 003°30'1417.0
2018-Jul-21 10:10N 58°57' W 003°19'1 1.0
2018-Jul-21 09:05N 58°58' W 003°18'1 7.7
2018-Jul-21 08:59N 58°57' W 003°18'916.7
2018-Jul-21 08:27N 58°50' W 003°29'819.0
2018-Jul-21 08:00N 58°42' W 003°31'4 2.9
2018-Jul-21 06:44N 58°38' W 003°32'419.4
2018-Jul-21 06:30N 58°42' W 003°31'1617.7
2018-Jul-21 05:37N 58°57' W 003°19'1 9.5
2018-Jul-21 05:30N 58°57' W 003°18'0 0.0
2018-Jul-20 19:16N 58°58' W 003°18'513.4
2018-Jul-20 18:53N 58°55' W 003°26'718.4
2018-Jul-20 18:29N 58°47' W 003°29'11 7.6
2018-Jul-20 17:04N 58°37' W 003°32'113.8
2018-Jul-20 16:59N 58°38' W 003°31'817.8
2018-Jul-20 16:30N 58°46' W 003°29'1018.7
2018-Jul-20 15:57N 58°56' W 003°24'4 1.5
2018-Jul-20 13:33N 58°58' W 003°18'1 9.2
2018-Jul-20 13:29N 58°57' W 003°17'915.6
2018-Jul-20 12:55N 58°50' W 003°28'818.3
2018-Jul-20 12:30N 58°43' W 003°30'5 3.9
2018-Jul-20 11:16N 58°38' W 003°31'519.1
2018-Jul-20 11:00N 58°43' W 003°30'1516.7
2018-Jul-20 10:07N 58°57' W 003°19'1 9.4
2018-Jul-20 10:00N 58°57' W 003°18'0 0.2
2018-Jul-20 09:04N 58°58' W 003°18'1 9.5
2018-Jul-20 09:00N 58°57' W 003°17'915.7
2018-Jul-20 08:25N 58°50' W 003°29'818.9
2018-Jul-20 08:00N 58°42' W 003°30'6 4.8
2018-Jul-20 06:48N 58°37' W 003°32'517.8
2018-Jul-20 06:30N 58°42' W 003°31'1318.3
2018-Jul-20 05:49N 58°54' W 003°26'517.4
2018-Jul-20 05:30N 58°57' W 003°17'1 0.1
2018-Jul-19 19:18N 58°58' W 003°18'512.8
2018-Jul-19 18:55N 58°55' W 003°26'919.4
2018-Jul-19 18:29N 58°47' W 003°30'11 7.5
2018-Jul-19 17:05N 58°37' W 003°32'112.6
2018-Jul-19 16:58N 58°38' W 003°31'919.6
2018-Jul-19 16:31N 58°47' W 003°29'1117.5
2018-Jul-19 15:52N 58°57' W 003°19'1 0.3
2018-Jul-19 13:30N 58°57' W 003°18'816.1
2018-Jul-19 13:00N 58°50' W 003°28'918.9
2018-Jul-19 12:30N 58°41' W 003°30'5 5.8
2018-Jul-19 11:43N 58°37' W 003°32'0 0.3
2018-Jul-19 11:20N 58°37' W 003°32'516.4
2018-Jul-19 11:00N 58°42' W 003°30'1419.4
2018-Jul-19 10:17N 58°56' W 003°25'415.7
2018-Jul-19 10:00N 58°57' W 003°17'1 0.6
2018-Jul-19 09:05N 58°58' W 003°18'1 9.3
2018-Jul-19 09:00N 58°57' W 003°17'915.4
2018-Jul-19 08:26N 58°50' W 003°28'819.2
2018-Jul-19 08:00N 58°42' W 003°31'6 4.7
2018-Jul-19 06:49N 58°37' W 003°32'517.7
2018-Jul-19 06:31N 58°42' W 003°30'1418.4
2018-Jul-19 05:45N 58°56' W 003°25'416.1
2018-Jul-19 05:29N 58°57' W 003°18'0 0.0
2018-Jul-18 19:22N 58°58' W 003°18'512.6
2018-Jul-18 18:58N 58°55' W 003°26'918.3
2018-Jul-18 18:30N 58°47' W 003°30'10 6.9
2018-Jul-18 17:04N 58°37' W 003°32'116.5
2018-Jul-18 16:59N 58°38' W 003°32'918.4
2018-Jul-18 16:30N 58°47' W 003°29'1116.0
2018-Jul-18 15:48N 58°57' W 003°19'1 0.4
2018-Jul-18 13:30N 58°57' W 003°18'914.9
2018-Jul-18 12:54N 58°50' W 003°28'717.4
2018-Jul-18 12:30N 58°43' W 003°30'7 6.0
2018-Jul-18 11:21N 58°37' W 003°32'1817.5
2018-Jul-18 10:18N 58°55' W 003°26'515.7
2018-Jul-18 10:00N 58°57' W 003°18'1 0.7
2018-Jul-18 09:02N 58°57' W 003°18'0 9.6
2018-Jul-18 08:59N 58°57' W 003°17'916.2
2018-Jul-18 08:26N 58°50' W 003°28'819.4
2018-Jul-18 08:00N 58°42' W 003°30'5 5.1
2018-Jul-18 06:56N 58°37' W 003°32'716.4
2018-Jul-18 06:30N 58°43' W 003°30'1118.4
2018-Jul-18 05:53N 58°55' W 003°26'5 0.5
2018-Jul-17 19:16N 58°58' W 003°18'512.9
2018-Jul-17 18:54N 58°55' W 003°26'1418.7
2018-Jul-17 18:08N 58°41' W 003°30'5 8.0
2018-Jul-17 17:32N 58°37' W 003°32'0 0.0
2018-Jul-17 17:17N 58°37' W 003°32'1 3.2
2018-Jul-17 16:59N 58°37' W 003°31'1318.8
2018-Jul-17 16:19N 58°50' W 003°28'815.9
2018-Jul-17 15:48N 58°57' W 003°19'1 0.5
2018-Jul-17 13:37N 58°58' W 003°18'914.3
2018-Jul-17 12:59N 58°50' W 003°28'1412.3
2018-Jul-17 11:51N 58°37' W 003°32'0 0.3
2018-Jul-17 11:27N 58°37' W 003°32'816.9
2018-Jul-17 10:59N 58°44' W 003°30'1020.0
2018-Jul-17 10:27N 58°55' W 003°26'5 4.2
2018-Jul-17 09:10N 58°58' W 003°18'2 8.9
2018-Jul-17 08:59N 58°57' W 003°20'816.8
2018-Jul-17 08:30N 58°50' W 003°29'14 8.5
2018-Jul-17 06:55N 58°37' W 003°32'716.7
2018-Jul-17 06:30N 58°43' W 003°31'1117.8
2018-Jul-17 05:52N 58°54' W 003°26'514.8
2018-Jul-17 05:30N 58°57' W 003°18'0 0.0
2018-Jul-16 19:18N 58°58' W 003°18'513.7
2018-Jul-16 18:54N 58°54' W 003°26'819.1
2018-Jul-16 18:30N 58°47' W 003°30'11 7.7
2018-Jul-16 17:09N 58°37' W 003°32'211.9
2018-Jul-16 16:59N 58°38' W 003°31'918.9
2018-Jul-16 16:30N 58°48' W 003°29'1116.4
2018-Jul-16 15:50N 58°57' W 003°18'1 0.3
2018-Jul-16 13:35N 58°58' W 003°18'1 8.3
2018-Jul-16 13:30N 58°57' W 003°18'915.3
2018-Jul-16 12:56N 58°50' W 003°29'818.7
2018-Jul-16 12:30N 58°42' W 003°30'6 4.6
2018-Jul-16 11:18N 58°37' W 003°32'718.1
2018-Jul-16 10:54N 58°44' W 003°30'1119.7
2018-Jul-16 10:20N 58°55' W 003°26'514.8
2018-Jul-16 10:00N 58°57' W 003°17'1 0.9
2018-Jul-16 09:03N 58°58' W 003°18'0 4.4
2018-Jul-16 09:00N 58°58' W 003°18'914.9
2018-Jul-16 08:24N 58°50' W 003°28'14 9.1
2018-Jul-16 06:53N 58°37' W 003°32'718.3
2018-Jul-16 06:30N 58°43' W 003°30'1218.1
2018-Jul-16 05:50N 58°55' W 003°25'513.9
2018-Jul-16 05:30N 58°58' W 003°18'0 0.0
2018-Jul-15 19:24N 58°58' W 003°18'614.4
2018-Jul-15 18:59N 58°54' W 003°27'12 5.7
2018-Jul-15 16:48N 58°42' W 003°30'618.7
2018-Jul-15 16:29N 58°48' W 003°29'918.2
2018-Jul-15 15:58N 58°56' W 003°23'3 0.7
2018-Jul-15 12:17N 58°58' W 003°18'19 6.2
2018-Jul-15 09:12N 58°40' W 003°31'518.9
2018-Jul-15 08:58N 58°44' W 003°30'1020.0
2018-Jul-15 08:27N 58°54' W 003°26'5 0.4
2018-Jul-14 19:17N 58°57' W 003°18'515.0
2018-Jul-14 18:57N 58°55' W 003°26'818.4
2018-Jul-14 18:31N 58°47' W 003°29'10 8.0
2018-Jul-14 17:14N 58°37' W 003°32'0 1.0
2018-Jul-14 17:00N 58°37' W 003°32'919.0
2018-Jul-14 16:30N 58°46' W 003°29'918.4
2018-Jul-14 16:00N 58°55' W 003°25'5 2.0
2018-Jul-14 13:41N 58°58' W 003°18'1 5.9
2018-Jul-14 13:30N 58°57' W 003°18'916.2
2018-Jul-14 12:59N 58°50' W 003°29'14 8.3
2018-Jul-14 11:21N 58°37' W 003°32'618.4
2018-Jul-14 11:01N 58°43' W 003°30'1517.1
2018-Jul-14 10:07N 58°57' W 003°19'1 7.6
2018-Jul-14 10:00N 58°58' W 003°18'0 0.3
2018-Jul-14 09:12N 58°58' W 003°18'2 9.4
2018-Jul-14 09:00N 58°57' W 003°21'1016.9
2018-Jul-14 08:24N 58°47' W 003°28'11 7.8
2018-Jul-14 07:00N 58°37' W 003°32'817.4
2018-Jul-14 06:30N 58°45' W 003°30'1019.4
2018-Jul-14 06:00N 58°55' W 003°26'5 0.5
2018-Jul-13 19:15N 58°58' W 003°18'514.2
2018-Jul-13 18:56N 58°55' W 003°25'818.2
2018-Jul-13 18:28N 58°47' W 003°29'1118.4
2018-Jul-13 17:53N 58°37' W 003°32'0 0.3
2018-Jul-13 17:27N 58°37' W 003°32'1 2.4
2018-Jul-13 16:58N 58°38' W 003°31'919.7
2018-Jul-13 16:30N 58°47' W 003°29'1117.8
2018-Jul-13 15:53N 58°57' W 003°21'2 0.7
2018-Jul-13 13:29N 58°58' W 003°18'914.6
2018-Jul-13 12:51N 58°50' W 003°29'719.5
2018-Jul-13 12:30N 58°43' W 003°30'7 5.8
2018-Jul-13 11:18N 58°37' W 003°32'515.3
2018-Jul-13 11:01N 58°41' W 003°31'1419.5
2018-Jul-13 10:19N 58°54' W 003°26'516.9
2018-Jul-13 10:00N 58°57' W 003°17'1 0.7
2018-Jul-13 09:02N 58°58' W 003°18'0 6.6
2018-Jul-13 09:00N 58°57' W 003°18'915.1
2018-Jul-13 08:24N 58°50' W 003°28'718.6
2018-Jul-13 08:00N 58°43' W 003°30'6 5.9
2018-Jul-13 06:55N 58°37' W 003°32'716.4
2018-Jul-13 06:30N 58°43' W 003°30'1220.0
2018-Jul-13 05:56N 58°55' W 003°26'512.2
2018-Jul-13 05:30N 58°58' W 003°18'0 0.0
2018-Jul-12 19:16N 58°58' W 003°18'514.9
2018-Jul-12 18:56N 58°55' W 003°26'817.6
2018-Jul-12 18:28N 58°47' W 003°29'10 7.7
2018-Jul-12 17:08N 58°37' W 003°32'1 8.9
2018-Jul-12 16:59N 58°38' W 003°31'919.0
2018-Jul-12 16:30N 58°47' W 003°29'1116.5
2018-Jul-12 15:50N 58°57' W 003°19'1 0.5
2018-Jul-12 13:32N 58°58' W 003°18'0 6.7
2018-Jul-12 13:30N 58°58' W 003°18'813.9
2018-Jul-12 12:54N 58°51' W 003°27'818.7
2018-Jul-12 12:30N 58°43' W 003°29'7 5.4
2018-Jul-12 11:15N 58°37' W 003°32'518.2
2018-Jul-12 11:00N 58°41' W 003°31'1318.8
2018-Jul-12 10:18N 58°54' W 003°26'517.1
2018-Jul-12 09:59N 58°57' W 003°17'1 0.6
2018-Jul-12 09:09N 58°58' W 003°18'513.9
2018-Jul-12 08:46N 58°54' W 003°26'518.2
2018-Jul-12 08:29N 58°50' W 003°28'918.6
2018-Jul-12 08:00N 58°41' W 003°31'4 6.1
2018-Jul-12 07:19N 58°37' W 003°32'0 0.2
2018-Jul-12 06:53N 58°37' W 003°32'616.5
2018-Jul-12 06:31N 58°43' W 003°30'1220.2
2018-Jul-12 05:54N 58°55' W 003°26'513.1
2018-Jul-12 05:30N 58°57' W 003°18'  

Dump ship's entire track history